Time;durP1;ratioP1;P1;durP2;ratioP2;P2;SDS_P1;SDS_P2;PMS_P1;PMS_P2;Temp;Humidity;BMP_temperature;BMP_pressure;BME280_temperature;BME280_humidity;BME280_pressure;Samples;Min_cycle;Max_cycle;Signal;HPM_P1;HPM_P2
2024/04/13 00:01:35;;;;;;;3.08;1.27;;;;;;;;;;5360364;26;20000;-74
2024/04/13 00:04:02;;;;;;;2.80;1.38;;;;;;;;;;5362988;26;20000;-74
2024/04/13 00:06:28;;;;;;;2.95;1.55;;;;;;;;;;5359549;26;20011;-74
2024/04/13 00:08:55;;;;;;;3.95;1.42;;;;;;;;;;5362754;26;20036;-73
2024/04/13 00:11:21;;;;;;;3.60;1.63;;;;;;;;;;5339928;26;20040;-74
2024/04/13 00:13:47;;;;;;;4.03;1.20;;;;;;;;;;5360074;26;20001;-73
2024/04/13 00:16:13;;;;;;;3.50;1.25;;;;;;;;;;5361384;26;20096;-73
2024/04/13 00:18:40;;;;;;;3.83;1.65;;;;;;;;;;5370844;26;20400;-73
2024/04/13 00:21:06;;;;;;;3.00;1.27;;;;;;;;;;5356521;26;20001;-73
2024/04/13 00:23:32;;;;;;;3.33;1.73;;;;;;;;;;5364267;26;20010;-74
2024/04/13 00:25:58;;;;;;;4.32;2.15;;;;;;;;;;5368019;26;19996;-74
2024/04/13 00:28:24;;;;;;;4.15;1.45;;;;;;;;;;5364456;26;20304;-73
2024/04/13 00:30:50;;;;;;;3.22;1.30;;;;;;;;;;5364752;26;20004;-74
2024/04/13 00:33:18;;;;;;;3.67;1.10;;;;;;;;;;5370186;26;20503;-74
2024/04/13 00:35:44;;;;;;;3.45;1.52;;;;;;;;;;5346704;26;20342;-74
2024/04/13 00:38:10;;;;;;;2.78;1.42;;;;;;;;;;5361181;26;20088;-74
2024/04/13 00:40:35;;;;;;;3.00;1.35;;;;;;;;;;5347209;26;20012;-74
2024/04/13 00:43:11;;;;;;;2.13;1.17;;;;;;;;;;5366326;26;19996;-74
2024/04/13 00:45:46;;;;;;;2.92;1.45;;;;;;;;;;5364436;26;20043;-74
2024/04/13 00:48:19;;;;;;;3.10;2.00;;;;;;;;;;5359017;26;20015;-74
2024/04/13 00:50:47;;;;;;;4.65;1.63;;;;;;;;;;5359144;26;20015;-74
2024/04/13 00:53:14;;;;;;;2.75;1.50;;;;;;;;;;5355407;26;20020;-74
2024/04/13 00:55:43;;;;;;;3.08;1.45;;;;;;;;;;5360731;26;20126;-73
2024/04/13 00:58:09;;;;;;;3.08;1.40;;;;;;;;;;5360563;26;19996;-74
2024/04/13 01:00:36;;;;;;;3.90;1.73;;;;;;;;;;5360771;26;20001;-74
2024/04/13 01:03:03;;;;;;;3.13;1.50;;;;;;;;;;5364361;26;19993;-73
2024/04/13 01:05:30;;;;;;;4.07;1.35;;;;;;;;;;5350490;26;20397;-73
2024/04/13 01:07:56;;;;;;;3.50;1.40;;;;;;;;;;5351923;26;20041;-74
2024/04/13 01:10:22;;;;;;;3.50;1.40;;;;;;;;;;5360874;26;20024;-73
2024/04/13 01:12:49;;;;;;;5.25;1.48;;;;;;;;;;5357243;26;19992;-74
2024/04/13 01:15:18;;;;;;;2.75;1.30;;;;;;;;;;5361408;26;20000;-73
2024/04/13 01:17:46;;;;;;;3.55;1.67;;;;;;;;;;5368431;26;20092;-73
2024/04/13 01:20:12;;;;;;;3.40;1.55;;;;;;;;;;5364473;26;20016;-74
2024/04/13 01:22:43;;;;;;;3.00;1.48;;;;;;;;;;5349411;26;20005;-73
2024/04/13 01:25:09;;;;;;;1.73;1.08;;;;;;;;;;5343334;26;20082;-74
2024/04/13 01:27:35;;;;;;;2.22;1.27;;;;;;;;;;5347904;26;20513;-73
2024/04/13 01:30:02;;;;;;;6.13;1.63;;;;;;;;;;5367330;26;20046;-73
2024/04/13 01:32:28;;;;;;;2.78;1.45;;;;;;;;;;5366387;26;20004;-73
2024/04/13 01:34:54;;;;;;;2.42;1.35;;;;;;;;;;5366228;26;20412;-73
2024/04/13 01:37:19;;;;;;;2.50;1.00;;;;;;;;;;5356020;26;20004;-72
2024/04/13 01:39:45;;;;;;;3.65;1.45;;;;;;;;;;5362648;26;20074;-73
2024/04/13 01:42:11;;;;;;;2.28;1.42;;;;;;;;;;5362617;26;20034;-72
2024/04/13 01:44:38;;;;;;;5.75;1.83;;;;;;;;;;5364957;26;20020;-73
2024/04/13 01:47:05;;;;;;;3.85;1.85;;;;;;;;;;5355692;26;20257;-73
2024/04/13 01:49:31;;;;;;;3.35;1.45;;;;;;;;;;5360165;26;20001;-73
2024/04/13 01:51:57;;;;;;;2.72;1.33;;;;;;;;;;5353334;26;20102;-72
2024/04/13 01:54:23;;;;;;;5.47;2.03;;;;;;;;;;5358374;26;20031;-73
2024/04/13 01:56:49;;;;;;;2.85;1.45;;;;;;;;;;5368998;26;20490;-72
2024/04/13 01:59:15;;;;;;;2.40;1.33;;;;;;;;;;5366048;26;20000;-73
2024/04/13 02:01:40;;;;;;;2.05;1.02;;;;;;;;;;5366866;26;20030;-73
2024/04/13 02:04:06;;;;;;;2.80;1.80;;;;;;;;;;5367174;26;20035;-73
2024/04/13 02:06:32;;;;;;;3.42;1.92;;;;;;;;;;5348953;26;20015;-73
2024/04/13 02:08:58;;;;;;;2.83;1.33;;;;;;;;;;5350359;26;20301;-73
2024/04/13 02:11:24;;;;;;;3.40;1.42;;;;;;;;;;5366915;26;20000;-73
2024/04/13 02:13:50;;;;;;;4.60;2.03;;;;;;;;;;5357367;26;20068;-73
2024/04/13 02:16:16;;;;;;;2.85;1.33;;;;;;;;;;5368248;26;20001;-73
2024/04/13 02:18:42;;;;;;;3.25;1.40;;;;;;;;;;5356352;26;20007;-74
2024/04/13 02:21:08;;;;;;;2.60;1.20;;;;;;;;;;5347360;26;20404;-73
2024/04/13 02:23:35;;;;;;;2.75;1.30;;;;;;;;;;5362891;26;20047;-74
2024/04/13 02:26:02;;;;;;;3.72;1.58;;;;;;;;;;5358193;26;20078;-74
2024/04/13 02:28:28;;;;;;;2.83;1.23;;;;;;;;;;5355657;26;20292;-73
2024/04/13 02:30:54;;;;;;;2.50;1.48;;;;;;;;;;5357809;26;20004;-73
2024/04/13 02:33:20;;;;;;;3.55;1.73;;;;;;;;;;5363289;26;20408;-74
2024/04/13 02:35:46;;;;;;;4.35;1.77;;;;;;;;;;5364322;26;20015;-73
2024/04/13 02:38:12;;;;;;;3.80;1.60;;;;;;;;;;5355129;26;20503;-73
2024/04/13 02:40:38;;;;;;;3.80;1.52;;;;;;;;;;5365162;26;20000;-73
2024/04/13 02:43:04;;;;;;;4.47;1.95;;;;;;;;;;5363286;26;20129;-73
2024/04/13 02:45:30;;;;;;;4.15;1.95;;;;;;;;;;5360713;26;20000;-73
2024/04/13 02:47:56;;;;;;;3.65;1.63;;;;;;;;;;5360456;26;20130;-73
2024/04/13 02:50:22;;;;;;;5.72;2.63;;;;;;;;;;5363899;26;20016;-74
2024/04/13 02:52:48;;;;;;;3.47;1.52;;;;;;;;;;5363510;26;19996;-73
2024/04/13 02:55:14;;;;;;;4.03;1.80;;;;;;;;;;5360033;26;20000;-74
2024/04/13 02:57:40;;;;;;;3.47;1.85;;;;;;;;;;5351247;26;20135;-74
2024/04/13 03:00:07;;;;;;;4.22;1.70;;;;;;;;;;5354449;26;20021;-74
2024/04/13 03:02:33;;;;;;;2.10;1.27;;;;;;;;;;5346882;26;20108;-74
2024/04/13 03:05:00;;;;;;;3.92;1.58;;;;;;;;;;5360011;26;20290;-74
2024/04/13 03:07:26;;;;;;;3.35;1.63;;;;;;;;;;5364803;26;20324;-75
2024/04/13 03:09:52;;;;;;;5.85;1.95;;;;;;;;;;5352389;26;19996;-74
2024/04/13 03:12:18;;;;;;;3.53;1.40;;;;;;;;;;5352876;26;20025;-74
2024/04/13 03:14:44;;;;;;;3.50;1.60;;;;;;;;;;5366468;26;20004;-74
2024/04/13 03:17:10;;;;;;;3.78;2.03;;;;;;;;;;5369021;26;20321;-73
2024/04/13 03:19:36;;;;;;;5.25;1.75;;;;;;;;;;5363048;26;20021;-74
2024/04/13 03:22:02;;;;;;;3.90;1.48;;;;;;;;;;5357321;26;20007;-74
2024/04/13 03:24:29;;;;;;;4.15;1.70;;;;;;;;;;5358143;26;20008;-74
2024/04/13 03:26:55;;;;;;;3.13;1.55;;;;;;;;;;5349339;26;20479;-74
2024/04/13 03:29:21;;;;;;;2.38;1.45;;;;;;;;;;5363217;26;20000;-74
2024/04/13 03:31:47;;;;;;;4.30;1.48;;;;;;;;;;5364905;26;20020;-74
2024/04/13 03:34:13;;;;;;;3.00;1.70;;;;;;;;;;5369143;26;20008;-74
2024/04/13 03:36:40;;;;;;;3.38;1.70;;;;;;;;;;5364015;26;20020;-74
2024/04/13 03:39:06;;;;;;;2.97;1.80;;;;;;;;;;5369894;26;21106;-74
2024/04/13 03:41:32;;;;;;;3.45;1.88;;;;;;;;;;5367426;26;19996;-74
2024/04/13 03:43:58;;;;;;;6.82;1.88;;;;;;;;;;5363573;26;20000;-74
2024/04/13 03:46:25;;;;;;;2.97;1.48;;;;;;;;;;5368704;26;20004;-74
2024/04/13 03:48:51;;;;;;;2.75;1.48;;;;;;;;;;5367856;26;20293;-74
2024/04/13 03:51:17;;;;;;;4.13;1.27;;;;;;;;;;5369939;26;19996;-73
2024/04/13 03:53:43;;;;;;;2.92;1.42;;;;;;;;;;5363736;26;20023;-74
2024/04/13 03:56:09;;;;;;;4.32;1.67;;;;;;;;;;5355946;26;20014;-73
2024/04/13 03:58:35;;;;;;;4.28;1.70;;;;;;;;;;5361892;26;20069;-74
2024/04/13 04:01:02;;;;;;;3.45;1.60;;;;;;;;;;5351402;26;20020;-74
2024/04/13 04:03:28;;;;;;;3.45;1.55;;;;;;;;;;5360813;26;20032;-74
2024/04/13 04:05:54;;;;;;;4.25;1.35;;;;;;;;;;5367766;26;20270;-74
2024/04/13 04:08:20;;;;;;;3.28;1.63;;;;;;;;;;5361865;26;19997;-74
2024/04/13 04:10:46;;;;;;;4.30;2.00;;;;;;;;;;5359746;26;20000;-74
2024/04/13 04:13:12;;;;;;;3.42;1.58;;;;;;;;;;5362669;26;20253;-74
2024/04/13 04:15:38;;;;;;;3.33;1.88;;;;;;;;;;5357836;26;20117;-74
2024/04/13 04:18:04;;;;;;;4.38;1.63;;;;;;;;;;5365769;26;20039;-74
2024/04/13 04:20:36;;;;;;;3.80;1.73;;;;;;;;;;5358098;26;20417;-73
2024/04/13 04:23:02;;;;;;;4.00;1.63;;;;;;;;;;5358074;26;20389;-73
2024/04/13 04:25:31;;;;;;;4.97;2.00;;;;;;;;;;5355607;26;20011;-74
2024/04/13 04:27:57;;;;;;;3.67;2.00;;;;;;;;;;5354566;26;20011;-73
2024/04/13 04:30:22;;;;;;;3.28;1.90;;;;;;;;;;5355604;26;20366;-72
2024/04/13 04:32:48;;;;;;;4.30;1.70;;;;;;;;;;5364883;26;20305;-72
2024/04/13 04:35:14;;;;;;;4.22;1.95;;;;;;;;;;5357190;26;20011;-72
2024/04/13 04:37:40;;;;;;;3.13;1.70;;;;;;;;;;5367882;26;20114;-72
2024/04/13 04:40:10;;;;;;;4.00;1.88;;;;;;;;;;5364724;26;20412;-73
2024/04/13 04:42:36;;;;;;;3.80;1.73;;;;;;;;;;5360298;26;20004;-72
2024/04/13 04:45:02;;;;;;;3.25;1.98;;;;;;;;;;5358188;26;20024;-72
2024/04/13 04:47:28;;;;;;;4.78;1.90;;;;;;;;;;5366781;26;20183;-72
2024/04/13 04:49:54;;;;;;;6.32;2.30;;;;;;;;;;5363078;26;20065;-72
2024/04/13 04:52:20;;;;;;;4.25;1.90;;;;;;;;;;5363618;26;20047;-72
2024/04/13 04:54:46;;;;;;;6.03;2.15;;;;;;;;;;5357445;26;20008;-72
2024/04/13 04:57:12;;;;;;;4.00;2.08;;;;;;;;;;5354667;26;20075;-72
2024/04/13 04:59:38;;;;;;;3.25;1.60;;;;;;;;;;5356744;26;20167;-72
2024/04/13 05:02:04;;;;;;;7.55;2.28;;;;;;;;;;5357557;26;20001;-72
2024/04/13 05:04:30;;;;;;;5.15;2.38;;;;;;;;;;5357303;26;20004;-72
2024/04/13 05:06:57;;;;;;;4.80;1.92;;;;;;;;;;5358213;26;20059;-71
2024/04/13 05:09:23;;;;;;;4.10;1.65;;;;;;;;;;5361149;26;20019;-72
2024/04/13 05:11:49;;;;;;;4.40;1.90;;;;;;;;;;5364809;26;20000;-71
2024/04/13 05:14:16;;;;;;;5.35;2.10;;;;;;;;;;5358897;26;20100;-71
2024/04/13 05:16:42;;;;;;;3.95;2.30;;;;;;;;;;5351425;26;20511;-72
2024/04/13 05:19:08;;;;;;;4.25;1.83;;;;;;;;;;5367691;26;20146;-72
2024/04/13 05:21:34;;;;;;;4.03;1.90;;;;;;;;;;5356604;26;22155;-72
2024/04/13 05:24:00;;;;;;;4.50;1.88;;;;;;;;;;5359823;26;20015;-70
2024/04/13 05:26:27;;;;;;;3.85;1.75;;;;;;;;;;5353392;26;19997;-71
2024/04/13 05:28:53;;;;;;;6.10;2.03;;;;;;;;;;5355372;26;20000;-71
2024/04/13 05:31:19;;;;;;;4.22;1.75;;;;;;;;;;5353689;26;20015;-72
2024/04/13 05:33:45;;;;;;;5.32;2.17;;;;;;;;;;5359937;26;20094;-73
2024/04/13 05:36:11;;;;;;;4.05;2.42;;;;;;;;;;5349344;26;20004;-72
2024/04/13 05:38:37;;;;;;;5.28;1.80;;;;;;;;;;5364736;26;20004;-73
2024/04/13 05:41:04;;;;;;;3.53;1.55;;;;;;;;;;5354837;26;20102;-72
2024/04/13 05:43:30;;;;;;;3.95;1.88;;;;;;;;;;5367916;26;19996;-72
2024/04/13 05:45:56;;;;;;;4.93;1.88;;;;;;;;;;5365448;26;20000;-72
2024/04/13 05:48:22;;;;;;;3.17;1.77;;;;;;;;;;5369438;26;20000;-72
2024/04/13 05:50:54;;;;;;;4.50;1.80;;;;;;;;;;5347327;26;20020;-72
2024/04/13 05:53:20;;;;;;;4.05;1.98;;;;;;;;;;5343044;26;20084;-72
2024/04/13 05:55:46;;;;;;;3.65;1.77;;;;;;;;;;5368514;26;20610;-73
2024/04/13 05:58:12;;;;;;;4.13;1.63;;;;;;;;;;5368611;26;20003;-72
2024/04/13 06:00:38;;;;;;;3.13;1.70;;;;;;;;;;5359952;26;20005;-73
2024/04/13 06:03:04;;;;;;;7.47;1.83;;;;;;;;;;5366873;26;20035;-72
2024/04/13 06:05:30;;;;;;;3.53;1.55;;;;;;;;;;5366882;26;20035;-73
2024/04/13 06:07:56;;;;;;;4.70;2.00;;;;;;;;;;5365573;26;20484;-72
2024/04/13 06:10:22;;;;;;;4.35;2.00;;;;;;;;;;5358364;26;20647;-73
2024/04/13 06:12:48;;;;;;;4.38;1.77;;;;;;;;;;5366184;26;20379;-73
2024/04/13 06:15:14;;;;;;;3.63;1.80;;;;;;;;;;5363442;26;20000;-72
2024/04/13 06:17:40;;;;;;;6.68;2.25;;;;;;;;;;5357030;26;20185;-72
2024/04/13 06:20:08;;;;;;;4.32;1.88;;;;;;;;;;5372394;26;20135;-72
2024/04/13 06:22:34;;;;;;;2.53;1.58;;;;;;;;;;5365810;26;20535;-72
2024/04/13 06:25:00;;;;;;;5.55;1.98;;;;;;;;;;5365199;26;20440;-72
2024/04/13 06:27:26;;;;;;;4.35;1.85;;;;;;;;;;5365450;26;20379;-72
2024/04/13 06:29:52;;;;;;;3.05;1.60;;;;;;;;;;5370503;26;20397;-73
2024/04/13 06:32:18;;;;;;;3.53;1.70;;;;;;;;;;5367324;26;20083;-73
2024/04/13 06:34:44;;;;;;;3.85;1.83;;;;;;;;;;5359221;26;20120;-72
2024/04/13 06:37:12;;;;;;;4.85;1.75;;;;;;;;;;5361188;26;20577;-72
2024/04/13 06:39:38;;;;;;;4.53;1.85;;;;;;;;;;5369483;26;20018;-73
2024/04/13 06:42:05;;;;;;;4.85;1.83;;;;;;;;;;5358223;26;20000;-73
2024/04/13 06:44:30;;;;;;;3.25;1.63;;;;;;;;;;5363127;26;20011;-73
2024/04/13 06:46:56;;;;;;;2.20;1.50;;;;;;;;;;5364949;26;20085;-74
2024/04/13 06:49:22;;;;;;;2.78;1.45;;;;;;;;;;5362412;26;20000;-74
2024/04/13 06:51:48;;;;;;;3.38;1.98;;;;;;;;;;5360523;26;20005;-74
2024/04/13 06:54:14;;;;;;;3.42;1.73;;;;;;;;;;5354042;26;20009;-74
2024/04/13 06:56:40;;;;;;;3.50;1.70;;;;;;;;;;5369938;26;20026;-74
2024/04/13 06:59:07;;;;;;;3.00;1.50;;;;;;;;;;5362964;26;20015;-74
2024/04/13 07:01:33;;;;;;;3.47;1.77;;;;;;;;;;5363998;26;20008;-74
2024/04/13 07:03:59;;;;;;;3.05;1.55;;;;;;;;;;5367227;26;20143;-74
2024/04/13 07:06:26;;;;;;;3.30;1.80;;;;;;;;;;5363722;26;20449;-74
2024/04/13 07:08:52;;;;;;;2.67;1.23;;;;;;;;;;5360693;26;20000;-74
2024/04/13 07:11:18;;;;;;;2.75;1.33;;;;;;;;;;5364282;26;20369;-74
2024/04/13 07:13:46;;;;;;;4.72;1.75;;;;;;;;;;5365068;26;20015;-74
2024/04/13 07:16:12;;;;;;;3.08;1.40;;;;;;;;;;5357023;26;20397;-73
2024/04/13 07:18:38;;;;;;;2.95;1.33;;;;;;;;;;5369468;26;20000;-74
2024/04/13 07:21:04;;;;;;;2.60;1.55;;;;;;;;;;5361315;26;20123;-74
2024/04/13 07:23:30;;;;;;;4.47;1.60;;;;;;;;;;5365415;26;20070;-74
2024/04/13 07:25:59;;;;;;;3.28;1.65;;;;;;;;;;5370177;26;20004;-73
2024/04/13 07:28:26;;;;;;;6.43;1.80;;;;;;;;;;5367938;26;20405;-73
2024/04/13 07:30:52;;;;;;;2.42;1.38;;;;;;;;;;5363455;26;20349;-73
2024/04/13 07:33:18;;;;;;;3.53;1.50;;;;;;;;;;5356169;26;20015;-72
2024/04/13 07:35:44;;;;;;;3.33;1.35;;;;;;;;;;5365800;26;20013;-72
2024/04/13 07:38:10;;;;;;;2.33;1.25;;;;;;;;;;5367569;26;20020;-73
2024/04/13 07:40:36;;;;;;;3.13;1.30;;;;;;;;;;5368156;26;20416;-74
2024/04/13 07:43:02;;;;;;;2.15;1.30;;;;;;;;;;5355586;26;20190;-73
2024/04/13 07:45:28;;;;;;;2.97;1.25;;;;;;;;;;5359024;26;20159;-73
2024/04/13 07:47:54;;;;;;;3.08;1.48;;;;;;;;;;5366161;26;20428;-72
2024/04/13 07:50:20;;;;;;;3.15;1.35;;;;;;;;;;5362092;26;20011;-71
2024/04/13 07:52:45;;;;;;;3.20;1.63;;;;;;;;;;5366487;26;20433;-73
2024/04/13 07:55:11;;;;;;;2.22;1.20;;;;;;;;;;5358537;26;20001;-73
2024/04/13 07:57:37;;;;;;;3.03;1.60;;;;;;;;;;5359092;26;20102;-73
2024/04/13 08:00:04;;;;;;;5.25;1.55;;;;;;;;;;5367859;26;20000;-73
2024/04/13 08:02:30;;;;;;;2.35;1.05;;;;;;;;;;5365498;26;19996;-73
2024/04/13 08:04:56;;;;;;;2.78;1.00;;;;;;;;;;5367734;26;20007;-72
2024/04/13 08:07:22;;;;;;;3.58;1.50;;;;;;;;;;5370190;26;20011;-72
2024/04/13 08:09:48;;;;;;;2.90;1.73;;;;;;;;;;5356207;26;20076;-72
2024/04/13 08:12:14;;;;;;;5.00;1.42;;;;;;;;;;5367487;26;20300;-73
2024/04/13 08:14:41;;;;;;;2.63;1.58;;;;;;;;;;5341904;26;20012;-70
2024/04/13 08:17:07;;;;;;;3.10;1.20;;;;;;;;;;5366087;26;20084;-71
2024/04/13 08:19:33;;;;;;;3.28;1.23;;;;;;;;;;5368912;26;20023;-72
2024/04/13 08:21:59;;;;;;;4.32;1.60;;;;;;;;;;5365308;26;20466;-69
2024/04/13 08:24:25;;;;;;;2.33;1.20;;;;;;;;;;5362379;26;20124;-71
2024/04/13 08:26:51;;;;;;;2.75;1.25;;;;;;;;;;5350838;26;20004;-70
2024/04/13 08:29:17;;;;;;;1.73;1.05;;;;;;;;;;5360986;26;20147;-71
2024/04/13 08:31:43;;;;;;;3.53;1.30;;;;;;;;;;5355907;26;20012;-71
2024/04/13 08:34:10;;;;;;;3.50;1.23;;;;;;;;;;5365827;26;20102;-72
2024/04/13 08:36:36;;;;;;;4.18;1.50;;;;;;;;;;5362514;26;20015;-69
2024/04/13 08:39:02;;;;;;;3.15;1.13;;;;;;;;;;5352868;26;20127;-71
2024/04/13 08:41:36;;;;;;;4.05;1.60;;;;;;;;;;5365236;26;20016;-71
2024/04/13 08:44:01;;;;;;;4.97;1.45;;;;;;;;;;5353547;26;20368;-71
2024/04/13 08:46:29;;;;;;;2.33;1.40;;;;;;;;;;5364920;26;20012;-70
2024/04/13 08:48:56;;;;;;;2.75;1.17;;;;;;;;;;5366193;26;20077;-71
2024/04/13 08:51:23;;;;;;;4.35;1.40;;;;;;;;;;5355902;26;20445;-71
2024/04/13 08:53:52;;;;;;;4.18;1.45;;;;;;;;;;5364249;26;20020;-71
2024/04/13 08:56:23;;;;;;;5.38;1.55;;;;;;;;;;5363575;26;20012;-71
2024/04/13 08:58:51;;;;;;;;;;;;;;;;;;5364407;26;20000;-72
2024/04/13 09:01:21;;;;;;;2.28;1.20;;;;;;;;;;5358326;26;20346;-71
2024/04/13 09:03:47;;;;;;;2.22;1.20;;;;;;;;;;5364536;26;19992;-71
2024/04/13 09:06:13;;;;;;;1.60;1.00;;;;;;;;;;5352365;26;20028;-71
2024/04/13 09:08:41;;;;;;;3.42;1.27;;;;;;;;;;5369894;26;20419;-71
2024/04/13 09:11:08;;;;;;;2.95;1.52;;;;;;;;;;5363390;26;20015;-72
2024/04/13 09:13:34;;;;;;;2.65;1.20;;;;;;;;;;5369755;26;20420;-71
2024/04/13 09:16:01;;;;;;;3.75;1.30;;;;;;;;;;5365863;26;20027;-72
2024/04/13 09:18:27;;;;;;;4.45;1.40;;;;;;;;;;5361479;26;20000;-69
2024/04/13 09:20:54;;;;;;;2.85;1.15;;;;;;;;;;5370877;26;20004;-71
2024/04/13 09:23:20;;;;;;;2.25;1.13;;;;;;;;;;5365358;26;20288;-71
2024/04/13 09:25:46;;;;;;;3.28;1.17;;;;;;;;;;5361875;26;20000;-72
2024/04/13 09:28:12;;;;;;;2.95;1.30;;;;;;;;;;5371383;26;20007;-71
2024/04/13 09:30:39;;;;;;;2.45;1.17;;;;;;;;;;5366148;26;20020;-71
2024/04/13 09:33:10;;;;;;;1.48;1.05;;;;;;;;;;5361148;26;20493;-71
2024/04/13 09:35:36;;;;;;;;;;;;;;;;;;5369884;26;20004;-71
2024/04/13 09:38:03;;;;;;;3.58;1.17;;;;;;;;;;5369641;26;20024;-70
2024/04/13 09:40:32;;;;;;;2.58;1.20;;;;;;;;;;5362256;26;20004;-71
2024/04/13 09:43:01;;;;;;;2.65;1.30;;;;;;;;;;5363212;26;20007;-71
2024/04/13 09:45:27;;;;;;;3.28;1.20;;;;;;;;;;5366419;26;20039;-70
2024/04/13 09:47:55;;;;;;;5.60;1.33;;;;;;;;;;5370580;26;20291;-70
2024/04/13 09:50:21;;;;;;;3.67;1.25;;;;;;;;;;5362549;26;20000;-70
2024/04/13 09:52:47;;;;;;;1.60;0.93;;;;;;;;;;5369171;26;20053;-71
2024/04/13 09:55:13;;;;;;;6.07;1.30;;;;;;;;;;5368112;26;20035;-71
2024/04/13 09:57:39;;;;;;;4.07;1.17;;;;;;;;;;5368594;26;19996;-71
2024/04/13 10:00:07;;;;;;;1.67;0.90;;;;;;;;;;5359659;26;19996;-71
2024/04/13 10:02:33;;;;;;;2.53;1.15;;;;;;;;;;5361268;26;20004;-71
2024/04/13 10:05:01;;;;;;;3.25;1.52;;;;;;;;;;5357610;26;20091;-71
2024/04/13 10:07:28;;;;;;;3.10;1.10;;;;;;;;;;5360076;26;19996;-71
2024/04/13 10:09:56;;;;;;;8.02;1.70;;;;;;;;;;5353245;26;20078;-71
2024/04/13 10:12:27;;;;;;;5.07;1.27;;;;;;;;;;5354151;26;20015;-71
2024/04/13 10:14:54;;;;;;;2.08;1.10;;;;;;;;;;5353011;26;20062;-71
2024/04/13 10:17:20;;;;;;;4.85;1.40;;;;;;;;;;5362127;26;20015;-71
2024/04/13 10:19:46;;;;;;;4.20;1.42;;;;;;;;;;5365291;26;20116;-71
2024/04/13 10:22:12;;;;;;;2.65;1.33;;;;;;;;;;5362016;26;20429;-71
2024/04/13 10:24:44;;;;;;;1.52;0.85;;;;;;;;;;5357305;26;20320;-71
2024/04/13 10:27:12;;;;;;;2.92;1.08;;;;;;;;;;5366080;26;20000;-71
2024/04/13 10:29:40;;;;;;;3.03;1.10;;;;;;;;;;5355075;26;20023;-71
2024/04/13 10:32:24;;;;;;;3.22;0.90;;;;;;;;;;5363506;26;20024;-71
2024/04/13 10:34:51;;;;;;;5.85;1.70;;;;;;;;;;5361528;26;19996;-71
2024/04/13 10:37:25;;;;;;;2.80;1.23;;;;;;;;;;5360146;26;20073;-70
2024/04/13 10:39:57;;;;;;;2.00;0.98;;;;;;;;;;5363116;26;20393;-71
2024/04/13 10:42:35;;;;;;;2.72;0.80;;;;;;;;;;5361169;26;20417;-71
2024/04/13 10:45:03;;;;;;;2.22;0.98;;;;;;;;;;5360910;26;20087;-71
2024/04/13 10:47:30;;;;;;;2.38;1.05;;;;;;;;;;5356303;26;20401;-71
2024/04/13 10:49:57;;;;;;;1.77;0.80;;;;;;;;;;5356705;26;20405;-70
2024/04/13 10:52:23;;;;;;;2.03;0.80;;;;;;;;;;5359426;26;20317;-71
2024/04/13 10:54:58;;;;;;;2.25;1.00;;;;;;;;;;5359110;26;20001;-71
2024/04/13 10:57:25;;;;;;;3.63;1.25;;;;;;;;;;5347012;26;20012;-71
2024/04/13 10:59:51;;;;;;;3.22;1.20;;;;;;;;;;5346643;26;20046;-71
2024/04/13 11:02:17;;;;;;;1.60;0.95;;;;;;;;;;5368002;26;20467;-70
2024/04/13 11:04:46;;;;;;;4.18;0.88;;;;;;;;;;5358401;26;20001;-71
2024/04/13 11:07:13;;;;;;;2.35;0.98;;;;;;;;;;5347771;26;20005;-71
2024/04/13 11:09:39;;;;;;;3.30;0.90;;;;;;;;;;5364913;26;20312;-71
2024/04/13 11:12:09;;;;;;;1.10;0.60;;;;;;;;;;5362444;26;20475;-70
2024/04/13 11:14:34;;;;;;;1.42;0.80;;;;;;;;;;5342706;26;20005;-71
2024/04/13 11:17:00;;;;;;;1.30;0.80;;;;;;;;;;5366654;26;20015;-71
2024/04/13 11:19:26;;;;;;;1.85;0.70;;;;;;;;;;5361387;26;20010;-71
2024/04/13 11:21:53;;;;;;;1.77;0.75;;;;;;;;;;5370372;26;20008;-71
2024/04/13 11:24:19;;;;;;;3.50;0.90;;;;;;;;;;5369182;26;20138;-71
2024/04/13 11:26:48;;;;;;;2.13;0.77;;;;;;;;;;5366180;26;20332;-71
2024/04/13 11:29:14;;;;;;;2.97;1.00;;;;;;;;;;5367736;26;20351;-71
2024/04/13 11:31:40;;;;;;;1.35;0.80;;;;;;;;;;5361965;26;20418;-71
2024/04/13 11:34:06;;;;;;;1.33;0.60;;;;;;;;;;5368432;26;20402;-71
2024/04/13 11:36:32;;;;;;;2.58;0.90;;;;;;;;;;5360872;26;20011;-70
2024/04/13 11:38:58;;;;;;;3.13;0.80;;;;;;;;;;5353673;26;20003;-69
2024/04/13 11:41:24;;;;;;;1.15;0.70;;;;;;;;;;5342463;26;20428;-68
2024/04/13 11:43:57;;;;;;;1.83;0.90;;;;;;;;;;5352507;26;20009;-70
2024/04/13 11:46:23;;;;;;;2.33;0.80;;;;;;;;;;5363059;26;20317;-70
2024/04/13 11:48:50;;;;;;;2.67;1.30;;;;;;;;;;5357697;26;20010;-72
2024/04/13 11:51:16;;;;;;;2.17;1.20;;;;;;;;;;5364657;26;20019;-70
2024/04/13 11:53:42;;;;;;;3.88;1.52;;;;;;;;;;5351883;26;20340;-70
2024/04/13 11:56:11;;;;;;;2.58;1.23;;;;;;;;;;5365180;26;20015;-70
2024/04/13 11:58:46;;;;;;;5.57;1.10;;;;;;;;;;5367266;26;20024;-70
2024/04/13 12:01:12;;;;;;;2.38;1.13;;;;;;;;;;5348427;26;20008;-70
2024/04/13 12:03:38;;;;;;;1.38;0.80;;;;;;;;;;5366536;26;20024;-70
2024/04/13 12:06:04;;;;;;;1.10;0.68;;;;;;;;;;5369195;26;20525;-70
2024/04/13 12:08:30;;;;;;;2.70;0.82;;;;;;;;;;5358300;26;20068;-71
2024/04/13 12:10:57;;;;;;;1.88;0.65;;;;;;;;;;5358288;26;20499;-70
2024/04/13 12:13:23;;;;;;;1.40;0.68;;;;;;;;;;5363239;26;20008;-70
2024/04/13 12:15:49;;;;;;;2.20;0.85;;;;;;;;;;5358994;26;20048;-70
2024/04/13 12:18:15;;;;;;;1.85;1.00;;;;;;;;;;5366415;26;20402;-70
2024/04/13 12:20:41;;;;;;;3.25;1.02;;;;;;;;;;5369407;26;20054;-71
2024/04/13 12:23:07;;;;;;;0.70;0.60;;;;;;;;;;5349443;26;20005;-70
2024/04/13 12:25:33;;;;;;;2.42;1.13;;;;;;;;;;5356255;26;20112;-71
2024/04/13 12:27:59;;;;;;;1.45;0.70;;;;;;;;;;5362936;26;20431;-71
2024/04/13 12:30:25;;;;;;;3.20;1.13;;;;;;;;;;5348315;26;20001;-71
2024/04/13 12:32:51;;;;;;;3.13;0.77;;;;;;;;;;5367334;26;20075;-71
2024/04/13 12:35:21;;;;;;;2.15;0.80;;;;;;;;;;5364744;26;20015;-70
2024/04/13 12:37:47;;;;;;;1.70;0.80;;;;;;;;;;5359223;26;20008;-70
2024/04/13 12:40:14;;;;;;;0.85;0.50;;;;;;;;;;5360376;26;20088;-71
2024/04/13 12:42:40;;;;;;;2.20;0.68;;;;;;;;;;5361860;26;20097;-71
2024/04/13 12:45:06;;;;;;;1.75;0.70;;;;;;;;;;5359424;26;20097;-70
2024/04/13 12:47:33;;;;;;;1.38;0.70;;;;;;;;;;5360617;26;20004;-70
2024/04/13 12:49:59;;;;;;;4.13;1.38;;;;;;;;;;5359697;26;20009;-71
2024/04/13 12:52:25;;;;;;;1.27;0.70;;;;;;;;;;5356143;26;20004;-71
2024/04/13 12:54:51;;;;;;;1.00;0.70;;;;;;;;;;5359352;26;20019;-71
2024/04/13 12:57:17;;;;;;;1.58;0.70;;;;;;;;;;5362303;26;20002;-72
2024/04/13 12:59:43;;;;;;;1.50;0.68;;;;;;;;;;5348623;26;20322;-71
2024/04/13 13:02:09;;;;;;;2.30;0.80;;;;;;;;;;5356343;26;20001;-71
2024/04/13 13:04:35;;;;;;;1.02;0.47;;;;;;;;;;5353680;26;20332;-71
2024/04/13 13:07:02;;;;;;;1.75;0.90;;;;;;;;;;5350547;26;20435;-71
2024/04/13 13:09:28;;;;;;;1.55;0.75;;;;;;;;;;5351524;26;20012;-72
2024/04/13 13:11:54;;;;;;;2.28;0.90;;;;;;;;;;5364796;26;20023;-71
2024/04/13 13:14:20;;;;;;;2.33;0.88;;;;;;;;;;5357363;26;20382;-71
2024/04/13 13:16:46;;;;;;;1.58;0.68;;;;;;;;;;5354203;26;20321;-70
2024/04/13 13:19:13;;;;;;;0.80;0.80;;;;;;;;;;5369536;26;20011;-71
2024/04/13 13:21:39;;;;;;;2.38;0.90;;;;;;;;;;5359721;26;20012;-72
2024/04/13 13:24:05;;;;;;;1.52;0.82;;;;;;;;;;5365669;26;20569;-72
2024/04/13 13:26:30;;;;;;;1.10;0.70;;;;;;;;;;5367194;26;20360;-72
2024/04/13 13:29:02;;;;;;;1.63;0.75;;;;;;;;;;5363834;26;20079;-71
2024/04/13 13:31:28;;;;;;;1.02;0.70;;;;;;;;;;5354273;26;20004;-71
2024/04/13 13:33:54;;;;;;;1.27;0.90;;;;;;;;;;5364469;26;20277;-71
2024/04/13 13:36:20;;;;;;;3.75;1.30;;;;;;;;;;5368598;26;20024;-71
2024/04/13 13:38:46;;;;;;;2.35;0.90;;;;;;;;;;5362000;26;20041;-70
2024/04/13 13:41:12;;;;;;;2.42;1.00;;;;;;;;;;5363474;26;20063;-73
2024/04/13 13:43:38;;;;;;;2.20;1.00;;;;;;;;;;5355084;26;19992;-72
2024/04/13 13:46:04;;;;;;;1.55;0.95;;;;;;;;;;5367977;26;20014;-72
2024/04/13 13:48:30;;;;;;;2.17;1.02;;;;;;;;;;5359876;26;20000;-73
2024/04/13 13:50:56;;;;;;;1.90;0.95;;;;;;;;;;5369973;26;20035;-72
2024/04/13 13:53:22;;;;;;;1.77;1.00;;;;;;;;;;5357633;26;20000;-73
2024/04/13 13:55:48;;;;;;;2.20;1.05;;;;;;;;;;5368395;26;20397;-73
2024/04/13 13:58:13;;;;;;;5.47;1.23;;;;;;;;;;5362706;26;20004;-72
2024/04/13 14:00:39;;;;;;;1.13;0.80;;;;;;;;;;5355829;26;20087;-72
2024/04/13 14:03:06;;;;;;;2.55;1.05;;;;;;;;;;5359142;26;20031;-72
2024/04/13 14:05:32;;;;;;;2.30;1.08;;;;;;;;;;5366259;26;20004;-73
2024/04/13 14:07:57;;;;;;;1.67;0.90;;;;;;;;;;5360824;26;20307;-73
2024/04/13 14:10:23;;;;;;;1.58;0.70;;;;;;;;;;5356900;26;20048;-73
2024/04/13 14:12:50;;;;;;;2.25;0.95;;;;;;;;;;5356450;26;19997;-70
2024/04/13 14:15:15;;;;;;;2.92;1.00;;;;;;;;;;5354992;26;20192;-72
2024/04/13 14:17:42;;;;;;;1.55;1.30;;;;;;;;;;5367718;26;20574;-72
2024/04/13 14:20:08;;;;;;;3.13;1.15;;;;;;;;;;5364926;26;20085;-72
2024/04/13 14:22:34;;;;;;;2.22;1.08;;;;;;;;;;5362050;26;20108;-72
2024/04/13 14:25:01;;;;;;;3.95;1.48;;;;;;;;;;5363539;26;20015;-72
2024/04/13 14:27:28;;;;;;;2.60;1.20;;;;;;;;;;5352718;26;19996;-72
2024/04/13 14:29:53;;;;;;;1.60;0.90;;;;;;;;;;5366044;26;20012;-72
2024/04/13 14:32:19;;;;;;;1.92;0.95;;;;;;;;;;5366164;26;20004;-72
2024/04/13 14:34:45;;;;;;;1.80;0.98;;;;;;;;;;5367568;26;20012;-72
2024/04/13 14:37:11;;;;;;;3.33;1.13;;;;;;;;;;5364830;26;20036;-72
2024/04/13 14:39:39;;;;;;;2.33;1.00;;;;;;;;;;5364999;26;20066;-72